Terminal Aerodrome Forecast
Issued by NWS Tampa Bay Area, FL

Home | Current Version | Previous Version | Text Only | Print | Product List | Glossary On
Versions: 1 2 3 4 5 6 7 8 9 10 11 12 13 14 15 16 17 18 19 20 21 22 23 24 25 26 27 28 29
000
FTUS42 KTBW 222300
TAFTPA
TAF
KTPA 222338Z 2300/2324 VRB06KT P6SM VCTS SCT025CB BKN035
      TEMPO 2300/2303 VRB15G25KT 4SM TSRA SCT015 BKN025CB
     FM230600 VRB03KT P6SM VCSH SCT015 BKN040
     FM231200 VRB05KT P6SM VCSH SCT025 BKN080
     FM231800 22007KT P6SM VCTS SCT025CB BKN050=

USA.gov is the U.S. government's official web portal to all federal, state and local government web resources and services.